createdAt,value
2023-02-02T00:01:21.299Z,1.20
2023-02-02T00:03:50.883Z,1.40
2023-02-02T00:06:21.095Z,1.38
2023-02-02T00:08:49.946Z,1.23
2023-02-02T00:11:18.912Z,1.35
2023-02-02T00:13:47.364Z,1.20
2023-02-02T00:16:49.277Z,1.20
2023-02-02T00:19:19.259Z,1.20
2023-02-02T00:21:49.466Z,1.13
2023-02-02T00:24:19.306Z,1.20
2023-02-02T00:26:53.425Z,1.08
2023-02-02T00:29:23.426Z,1.40
2023-02-02T00:31:52.414Z,1.25
2023-02-02T00:34:20.999Z,1.67
2023-02-02T00:36:51.435Z,1.00
2023-02-02T00:39:20.873Z,0.95
2023-02-02T00:41:49.147Z,1.40
2023-02-02T00:44:34.848Z,1.23
2023-02-02T00:47:03.001Z,1.20
2023-02-02T00:49:31.377Z,1.00
2023-02-02T00:52:01.215Z,1.20
2023-02-02T00:54:29.874Z,0.90
2023-02-02T00:56:58.093Z,1.30
2023-02-02T00:59:26.230Z,0.98
2023-02-02T01:01:54.414Z,1.02
2023-02-02T01:04:22.594Z,1.27
2023-02-02T01:06:50.787Z,1.55
2023-02-02T01:09:20.317Z,1.17
2023-02-02T01:11:48.420Z,1.20
2023-02-02T01:14:16.616Z,1.27
2023-02-02T01:16:44.800Z,1.25
2023-02-02T01:19:14.198Z,1.50
2023-02-02T01:21:42.417Z,1.10
2023-02-02T01:24:10.618Z,1.20
2023-02-02T01:26:40.183Z,1.40
2023-02-02T01:29:08.343Z,1.40
2023-02-02T01:31:36.503Z,1.13
2023-02-02T01:34:04.748Z,1.23
2023-02-02T01:36:32.843Z,1.20
2023-02-02T01:39:00.955Z,0.90
2023-02-02T01:41:29.584Z,1.40
2023-02-02T01:44:01.162Z,1.20
2023-02-02T01:46:31.345Z,1.10
2023-02-02T01:49:07.059Z,1.35
2023-02-02T01:51:41.908Z,1.20
2023-02-02T01:54:13.334Z,0.90
2023-02-02T01:56:46.017Z,0.90
2023-02-02T01:59:17.669Z,1.10
2023-02-02T02:01:47.832Z,0.60
2023-02-02T02:04:16.825Z,0.93
2023-02-02T02:06:45.570Z,0.95
2023-02-02T02:09:14.326Z,0.70
2023-02-02T02:11:42.438Z,0.65
2023-02-02T02:14:30.276Z,0.90
2023-02-02T02:17:12.406Z,0.65
2023-02-02T02:20:33.385Z,0.60
2023-02-02T02:23:46.044Z,0.60
2023-02-02T02:26:49.470Z,0.80
2023-02-02T02:32:28.737Z,0.82
2023-02-02T02:35:05.377Z,0.70
2023-02-02T02:37:39.650Z,1.27
2023-02-02T02:40:17.106Z,1.27
2023-02-02T02:42:48.258Z,1.30
2023-02-02T02:45:19.136Z,1.52
2023-02-02T02:47:49.792Z,1.42
2023-02-02T02:50:18.337Z,1.80
2023-02-02T02:52:48.004Z,1.55
2023-02-02T02:55:16.371Z,1.63
2023-02-02T02:58:08.406Z,1.80
2023-02-02T03:01:03.286Z,1.73
2023-02-02T03:03:48.046Z,1.85
2023-02-02T03:06:23.114Z,1.55
2023-02-02T03:08:56.975Z,1.70
2023-02-02T03:11:25.094Z,1.75
2023-02-02T03:13:53.457Z,1.70
2023-02-02T03:16:21.574Z,1.95
2023-02-02T03:18:51.073Z,1.60
2023-02-02T03:21:19.201Z,1.25
2023-02-02T03:23:47.293Z,1.52
2023-02-02T03:26:15.465Z,1.60
2023-02-02T03:28:43.702Z,1.30
2023-02-02T03:31:12.052Z,1.42
2023-02-02T03:33:40.503Z,1.30
2023-02-02T03:36:10.899Z,1.83
2023-02-02T03:38:38.978Z,1.60
2023-02-02T03:41:07.398Z,1.50
2023-02-02T03:43:35.502Z,1.85
2023-02-02T03:46:06.126Z,1.33
2023-02-02T03:48:37.088Z,1.50
2023-02-02T03:51:09.820Z,1.33
2023-02-02T03:56:06.423Z,1.08
2023-02-02T03:58:34.630Z,1.30
2023-02-02T04:01:05.296Z,1.48
2023-02-02T04:03:33.670Z,2.10
2023-02-02T04:06:02.074Z,2.88
2023-02-02T04:08:31.893Z,1.60
2023-02-02T04:10:59.989Z,1.35
2023-02-02T04:13:28.165Z,1.50
2023-02-02T04:16:00.861Z,1.50
2023-02-02T04:20:59.425Z,1.60
2023-02-02T04:23:28.630Z,1.30
2023-02-02T04:25:58.592Z,1.15
2023-02-02T04:28:27.463Z,1.40
2023-02-02T04:30:56.924Z,1.52
2023-02-02T04:33:27.270Z,1.13
2023-02-02T04:35:55.821Z,1.13
2023-02-02T04:38:23.989Z,1.20
2023-02-02T04:40:52.125Z,1.73
2023-02-02T04:43:21.655Z,0.80
2023-02-02T04:45:50.483Z,1.10
2023-02-02T04:48:18.653Z,1.17
2023-02-02T04:50:46.755Z,0.85
2023-02-02T04:53:14.887Z,1.10
2023-02-02T04:55:43.045Z,0.80
2023-02-02T04:58:11.175Z,1.20
2023-02-02T05:00:40.716Z,1.08
2023-02-02T05:03:08.819Z,1.40
2023-02-02T05:05:36.969Z,1.13
2023-02-02T05:08:05.341Z,1.25
2023-02-02T05:10:33.448Z,1.50
2023-02-02T05:13:01.583Z,1.30
2023-02-02T05:15:29.877Z,1.00
2023-02-02T05:17:59.540Z,0.90
2023-02-02T05:20:27.777Z,1.88
2023-02-02T05:22:55.891Z,1.42
2023-02-02T05:25:24.386Z,1.40
2023-02-02T05:27:52.755Z,1.40
2023-02-02T05:30:20.924Z,1.30
2023-02-02T05:32:49.059Z,1.60
2023-02-02T05:35:18.795Z,1.42
2023-02-02T05:37:47.000Z,1.30
2023-02-02T05:40:15.194Z,1.70
2023-02-02T05:42:43.296Z,1.60
2023-02-02T05:45:12.496Z,1.45
2023-02-02T05:47:40.636Z,1.38
2023-02-02T05:50:09.595Z,1.88
2023-02-02T05:52:41.432Z,1.30
2023-02-02T05:55:11.226Z,1.30
2023-02-02T05:57:39.359Z,1.35
2023-02-02T06:00:08.687Z,1.23
2023-02-02T06:02:36.773Z,1.58
2023-02-02T06:05:05.103Z,1.40
2023-02-02T06:07:33.214Z,1.20
2023-02-02T06:10:02.748Z,1.20
2023-02-02T06:12:30.853Z,1.40
2023-02-02T06:14:58.972Z,1.80
2023-02-02T06:17:27.119Z,1.50
2023-02-02T06:19:55.253Z,1.30
2023-02-02T06:22:23.333Z,1.30
2023-02-02T06:24:53.466Z,1.65
2023-02-02T06:27:23.199Z,1.42
2023-02-02T06:29:51.304Z,1.50
2023-02-02T06:32:19.487Z,1.30
2023-02-02T06:34:47.605Z,1.30
2023-02-02T06:37:15.690Z,1.27
2023-02-02T06:39:43.791Z,0.93
2023-02-02T06:42:20.846Z,1.45
2023-02-02T06:44:51.381Z,1.40
2023-02-02T06:47:19.470Z,1.30
2023-02-02T06:49:47.581Z,1.30
2023-02-02T06:52:15.761Z,1.05
2023-02-02T06:54:43.895Z,1.25
2023-02-02T06:57:11.962Z,1.20
2023-02-02T06:59:41.098Z,1.35
2023-02-02T07:02:14.111Z,1.48
2023-02-02T07:04:42.297Z,1.25
2023-02-02T07:07:10.413Z,1.10
2023-02-02T07:09:38.575Z,1.30
2023-02-02T07:12:07.155Z,1.02
2023-02-02T07:14:35.265Z,1.10
2023-02-02T07:17:03.389Z,0.82
2023-02-02T07:19:33.696Z,1.10
2023-02-02T07:22:01.894Z,1.35
2023-02-02T07:24:30.258Z,1.52
2023-02-02T07:26:59.002Z,1.83
2023-02-02T07:29:27.106Z,1.60
2023-02-02T07:31:55.274Z,1.20
2023-02-02T07:34:23.415Z,1.80
2023-02-02T07:36:52.920Z,1.00
2023-02-02T07:39:21.062Z,1.83
2023-02-02T07:41:49.176Z,1.13
2023-02-02T07:44:18.058Z,1.25
2023-02-02T07:46:48.162Z,0.85
2023-02-02T07:49:18.264Z,1.20
2023-02-02T07:51:49.233Z,1.20
2023-02-02T07:54:18.763Z,1.10
2023-02-02T07:56:46.936Z,1.10
2023-02-02T07:59:15.034Z,1.00
2023-02-02T08:01:46.093Z,1.20
2023-02-02T08:04:14.225Z,1.10
2023-02-02T08:06:42.404Z,2.50
2023-02-02T08:09:11.224Z,1.15
2023-02-02T08:11:40.893Z,1.02
2023-02-02T08:14:09.111Z,1.00
2023-02-02T08:16:37.540Z,1.10
2023-02-02T08:19:05.714Z,1.13
2023-02-02T08:21:35.129Z,0.90
2023-02-02T08:24:04.682Z,0.90
2023-02-02T08:26:33.571Z,0.90
2023-02-02T08:29:06.115Z,0.82
2023-02-02T08:31:36.506Z,0.80
2023-02-02T08:34:05.579Z,1.00
2023-02-02T08:36:35.581Z,1.15
2023-02-02T08:39:05.495Z,1.00
2023-02-02T08:41:33.942Z,1.45
2023-02-02T08:44:06.183Z,1.50
2023-02-02T08:46:34.284Z,1.98
2023-02-02T08:49:02.497Z,1.10
2023-02-02T08:51:30.667Z,1.17
2023-02-02T08:53:58.845Z,0.90
2023-02-02T08:56:26.993Z,1.45
2023-02-02T08:58:58.289Z,1.23
2023-02-02T09:01:29.230Z,1.08
2023-02-02T09:03:58.853Z,1.27
2023-02-02T09:06:29.703Z,0.88
2023-02-02T09:08:57.898Z,1.38
2023-02-02T09:11:26.205Z,0.90
2023-02-02T09:13:56.787Z,1.10
2023-02-02T09:16:26.041Z,1.85
2023-02-02T09:18:56.345Z,1.08
2023-02-02T09:21:24.646Z,1.17
2023-02-02T09:23:54.461Z,1.08
2023-02-02T09:26:24.420Z,1.17
2023-02-02T09:28:55.112Z,1.20
2023-02-02T09:31:24.480Z,0.98
2023-02-02T09:33:52.961Z,1.45
2023-02-02T09:36:24.482Z,1.00
2023-02-02T09:38:52.958Z,1.10
2023-02-02T09:42:00.891Z,1.30
2023-02-02T09:44:57.190Z,1.00
2023-02-02T09:47:30.842Z,0.88
2023-02-02T09:50:04.894Z,1.20
2023-02-02T09:52:40.687Z,1.08
2023-02-02T09:55:16.029Z,1.60
2023-02-02T09:57:48.485Z,1.13
2023-02-02T10:00:27.307Z,1.33
2023-02-02T10:03:02.005Z,1.38
2023-02-02T10:05:39.873Z,0.93
2023-02-02T10:08:18.442Z,1.15
2023-02-02T10:10:55.188Z,1.10
2023-02-02T10:13:30.727Z,1.60
2023-02-02T10:16:04.292Z,1.13
2023-02-02T10:18:42.155Z,1.20
2023-02-02T10:21:13.875Z,1.08
2023-02-02T10:23:46.179Z,1.42
2023-02-02T10:26:19.046Z,0.90
2023-02-02T10:29:01.242Z,1.33
2023-02-02T10:31:42.801Z,1.27
2023-02-02T10:34:18.114Z,1.67
2023-02-02T10:37:04.336Z,1.02
2023-02-02T10:39:45.710Z,1.10
2023-02-02T10:42:24.262Z,1.15
2023-02-02T10:45:00.985Z,1.20
2023-02-02T10:47:31.710Z,1.25
2023-02-02T10:50:16.495Z,1.48
2023-02-02T10:52:48.884Z,1.08
2023-02-02T10:55:28.189Z,1.02
2023-02-02T10:58:09.731Z,1.20
2023-02-02T11:00:46.767Z,1.23
2023-02-02T11:03:17.447Z,0.80
2023-02-02T11:06:03.179Z,1.27
2023-02-02T11:08:34.657Z,1.13
2023-02-02T11:11:12.708Z,1.40
2023-02-02T11:13:45.539Z,1.30
2023-02-02T11:16:22.139Z,1.13
2023-02-02T11:18:50.815Z,1.20
2023-02-02T11:21:27.028Z,2.92
2023-02-02T11:23:57.973Z,1.35
2023-02-02T11:26:49.794Z,1.42
2023-02-02T11:29:36.064Z,1.00
2023-02-02T11:32:21.688Z,1.40
2023-02-02T11:35:08.739Z,1.35
2023-02-02T11:37:38.126Z,1.20
2023-02-02T11:40:24.308Z,1.20
2023-02-02T11:42:54.661Z,1.40
2023-02-02T11:45:30.883Z,1.20
2023-02-02T11:48:04.198Z,1.10
2023-02-02T11:50:32.401Z,1.10
2023-02-02T11:53:00.816Z,1.73
2023-02-02T11:55:31.548Z,1.13
2023-02-02T11:58:20.225Z,0.98
2023-02-02T12:00:49.861Z,0.90
2023-02-02T12:03:30.255Z,1.20
2023-02-02T12:05:58.841Z,0.90
2023-02-02T12:08:27.129Z,1.10
2023-02-02T12:10:59.745Z,1.02
2023-02-02T12:13:53.650Z,1.02
2023-02-02T12:16:38.028Z,1.00
2023-02-02T12:19:28.960Z,0.90
2023-02-02T12:22:10.542Z,1.10
2023-02-02T12:24:47.859Z,0.90
2023-02-02T12:27:28.480Z,0.95
2023-02-02T12:30:19.451Z,1.10
2023-02-02T12:33:10.591Z,0.93
2023-02-02T12:35:55.601Z,1.35
2023-02-02T12:38:43.444Z,1.42
2023-02-02T12:41:31.451Z,1.25
2023-02-02T12:44:08.617Z,1.20
2023-02-02T12:46:51.021Z,1.50
2023-02-02T12:49:33.646Z,1.10
2023-02-02T12:52:17.633Z,1.35
2023-02-02T12:55:16.472Z,1.20
2023-02-02T12:57:54.278Z,1.00
2023-02-02T13:00:58.586Z,1.15
2023-02-02T13:03:37.368Z,1.25
2023-02-02T13:06:36.571Z,1.50
2023-02-02T13:09:09.923Z,0.98
2023-02-02T13:11:44.909Z,0.90
2023-02-02T13:14:18.708Z,1.38
2023-02-02T13:16:50.553Z,1.23
2023-02-02T13:19:30.054Z,1.60
2023-02-02T13:22:00.548Z,1.08
2023-02-02T13:24:31.853Z,1.38
2023-02-02T13:27:03.152Z,1.08
2023-02-02T13:29:37.918Z,1.15
2023-02-02T13:32:21.001Z,1.20
2023-02-02T13:34:54.721Z,1.27
2023-02-02T13:37:37.093Z,1.40
2023-02-02T13:40:08.241Z,1.38
2023-02-02T13:42:45.158Z,1.10
2023-02-02T13:45:42.644Z,1.20
2023-02-02T13:48:25.356Z,1.10
2023-02-02T13:51:13.494Z,1.65
2023-02-02T13:54:05.840Z,1.30
2023-02-02T13:56:43.852Z,1.40
2023-02-02T13:59:34.759Z,1.20
2023-02-02T14:02:03.682Z,1.50
2023-02-02T14:04:32.929Z,0.88
2023-02-02T14:07:05.732Z,1.20
2023-02-02T14:12:07.129Z,1.50
2023-02-02T14:17:07.649Z,1.13
2023-02-02T14:19:55.717Z,1.65
2023-02-02T14:22:48.051Z,1.23
2023-02-02T14:25:55.454Z,0.98
2023-02-02T14:28:46.413Z,1.38
2023-02-02T14:31:52.414Z,1.45
2023-02-02T14:34:30.562Z,1.40
2023-02-02T14:37:32.920Z,1.30
2023-02-02T14:40:19.271Z,1.42
2023-02-02T14:43:17.956Z,1.30
2023-02-02T14:45:48.997Z,1.60
2023-02-02T14:48:19.300Z,1.17
2023-02-02T14:50:52.837Z,1.20
2023-02-02T14:53:29.384Z,1.30
2023-02-02T14:56:01.969Z,1.77
2023-02-02T14:58:35.240Z,0.93
2023-02-02T15:01:24.728Z,1.33
2023-02-02T15:03:56.250Z,1.40
2023-02-02T15:06:33.478Z,1.60
2023-02-02T15:09:39.952Z,0.95
2023-02-02T15:12:23.922Z,1.52
2023-02-02T15:14:58.002Z,1.30
2023-02-02T15:17:34.913Z,1.50
2023-02-02T15:20:13.641Z,1.50
2023-02-02T15:22:47.422Z,1.13
2023-02-02T15:25:46.271Z,1.48
2023-02-02T15:28:22.700Z,1.80
2023-02-02T15:30:54.532Z,1.20
2023-02-02T15:33:29.412Z,2.37
2023-02-02T15:36:03.534Z,1.75
2023-02-02T15:38:35.359Z,1.45
2023-02-02T15:41:09.076Z,1.70
2023-02-02T15:43:39.712Z,1.40
2023-02-02T15:46:12.916Z,1.40
2023-02-02T15:48:43.467Z,1.80
2023-02-02T15:51:17.610Z,1.38
2023-02-02T15:53:51.887Z,1.35
2023-02-02T15:56:29.351Z,1.40
2023-02-02T15:59:01.778Z,1.60
2023-02-02T16:01:33.471Z,1.45
2023-02-02T16:04:15.143Z,1.95
2023-02-02T16:06:44.341Z,1.50
2023-02-02T16:09:25.597Z,2.75
2023-02-02T16:11:54.201Z,1.20
2023-02-02T16:14:23.937Z,1.75
2023-02-02T16:16:52.144Z,1.40
2023-02-02T16:19:23.142Z,1.60
2023-02-02T16:21:55.448Z,1.92
2023-02-02T16:24:26.815Z,1.65
2023-02-02T16:26:56.751Z,1.40
2023-02-02T16:29:28.219Z,1.60
2023-02-02T16:31:57.264Z,1.60
2023-02-02T16:34:47.342Z,1.55
2023-02-02T16:37:17.483Z,1.42
2023-02-02T16:39:45.779Z,1.60
2023-02-02T16:42:25.674Z,1.50
2023-02-02T16:44:56.002Z,2.03
2023-02-02T16:47:36.034Z,1.65
2023-02-02T16:50:28.925Z,1.77
2023-02-02T16:53:00.879Z,1.83
2023-02-02T16:55:48.815Z,1.60
2023-02-02T16:58:21.974Z,1.90
2023-02-02T17:01:14.805Z,1.67
2023-02-02T17:03:51.061Z,1.65
2023-02-02T17:06:26.522Z,1.67
2023-02-02T17:08:54.841Z,1.48
2023-02-02T17:11:25.359Z,1.42
2023-02-02T17:13:55.034Z,1.77
2023-02-02T17:16:26.978Z,2.05
2023-02-02T17:18:55.747Z,1.80
2023-02-02T17:21:27.435Z,1.83
2023-02-02T17:23:56.530Z,1.70
2023-02-02T17:26:25.590Z,1.70
2023-02-02T17:28:57.548Z,2.05
2023-02-02T17:31:27.462Z,1.35
2023-02-02T17:33:55.998Z,2.15
2023-02-02T17:36:24.803Z,2.03
2023-02-02T17:38:56.372Z,2.20
2023-02-02T17:41:25.099Z,1.63
2023-02-02T17:43:53.278Z,1.80
2023-02-02T17:46:24.410Z,1.58
2023-02-02T17:48:54.667Z,1.90
2023-02-02T17:51:23.640Z,1.60
2023-02-02T17:53:52.449Z,1.80
2023-02-02T17:56:22.201Z,1.70
2023-02-02T17:58:50.793Z,1.90
2023-02-02T18:01:19.795Z,2.47
2023-02-02T18:03:48.809Z,2.00
2023-02-02T18:06:21.867Z,2.00
2023-02-02T18:08:50.262Z,1.90
2023-02-02T18:11:20.364Z,1.83
2023-02-02T18:13:48.856Z,1.98
2023-02-02T18:16:17.702Z,2.70
2023-02-02T18:18:45.947Z,2.15
2023-02-02T18:21:15.195Z,1.95
2023-02-02T18:23:48.196Z,1.75
2023-02-02T18:26:20.340Z,1.83
2023-02-02T18:28:50.104Z,2.22
2023-02-02T18:31:22.791Z,2.35
2023-02-02T18:36:23.800Z,2.17
2023-02-02T18:38:54.083Z,1.58
2023-02-02T18:41:22.731Z,2.05
2023-02-02T18:43:55.320Z,2.22
2023-02-02T18:46:24.191Z,1.92
2023-02-02T18:48:52.643Z,2.33
2023-02-02T18:51:22.138Z,2.03
2023-02-02T18:53:51.646Z,1.80
2023-02-02T18:56:22.531Z,2.00
2023-02-02T18:58:51.658Z,1.50
2023-02-02T19:01:22.017Z,1.98
2023-02-02T19:03:53.217Z,2.20
2023-02-02T19:06:40.023Z,2.08
2023-02-02T19:09:11.485Z,1.80
2023-02-02T19:11:45.047Z,1.70
2023-02-02T19:14:16.939Z,1.67
2023-02-02T19:16:49.119Z,1.80
2023-02-02T19:19:30.651Z,1.80
2023-02-02T19:22:01.573Z,2.03
2023-02-02T19:24:39.395Z,1.83
2023-02-02T19:27:18.684Z,2.17
2023-02-02T19:29:48.591Z,2.40
2023-02-02T19:32:21.870Z,1.95
2023-02-02T19:34:51.270Z,2.20
2023-02-02T19:37:25.684Z,2.45
2023-02-02T19:39:57.907Z,2.97
2023-02-02T19:42:27.823Z,2.15
2023-02-02T19:44:58.270Z,1.77
2023-02-02T19:47:33.092Z,2.00
2023-02-02T19:50:15.922Z,2.40
2023-02-02T19:52:44.746Z,3.13
2023-02-02T19:55:25.006Z,2.22
2023-02-02T19:57:59.777Z,2.53
2023-02-02T20:00:30.561Z,2.33
2023-02-02T20:03:01.290Z,2.28
2023-02-02T20:05:34.525Z,1.77
2023-02-02T20:08:10.136Z,2.30
2023-02-02T20:10:42.680Z,1.77
2023-02-02T20:13:18.198Z,2.22
2023-02-02T20:15:47.983Z,2.10
2023-02-02T20:18:21.220Z,1.60
2023-02-02T20:20:55.454Z,2.00
2023-02-02T20:23:37.993Z,2.08
2023-02-02T20:26:22.753Z,1.77
2023-02-02T20:28:54.952Z,1.63
2023-02-02T20:31:28.277Z,1.85
2023-02-02T20:33:59.645Z,1.90
2023-02-02T20:36:38.596Z,1.88
2023-02-02T20:39:30.402Z,2.30
2023-02-02T20:41:59.495Z,2.00
2023-02-02T20:44:32.016Z,2.05
2023-02-02T20:47:01.927Z,2.25
2023-02-02T20:49:32.203Z,1.98
2023-02-02T20:52:02.389Z,2.30
2023-02-02T20:54:32.371Z,2.20
2023-02-02T20:57:02.272Z,2.20
2023-02-02T20:59:32.423Z,2.00
2023-02-02T21:02:01.311Z,2.13
2023-02-02T21:04:30.127Z,2.30
2023-02-02T21:06:59.537Z,1.90
2023-02-02T21:09:28.530Z,2.08
2023-02-02T21:11:56.777Z,2.22
2023-02-02T21:14:25.120Z,2.33
2023-02-02T21:17:12.622Z,2.30
2023-02-02T21:19:42.352Z,2.50
2023-02-02T21:22:11.030Z,2.53
2023-02-02T21:24:39.739Z,2.75
2023-02-02T21:27:09.073Z,2.20
2023-02-02T21:29:37.311Z,2.22
2023-02-02T21:32:07.470Z,2.42
2023-02-02T21:34:37.794Z,2.00
2023-02-02T21:37:13.691Z,2.40
2023-02-02T21:39:46.615Z,2.22
2023-02-02T21:42:17.292Z,2.13
2023-02-02T21:44:49.757Z,2.13
2023-02-02T21:47:34.750Z,2.33
2023-02-02T21:50:16.345Z,2.20
2023-02-02T21:52:44.803Z,2.10
2023-02-02T21:55:32.036Z,2.45
2023-02-02T21:58:02.398Z,1.98
2023-02-02T22:00:34.594Z,2.15
2023-02-02T22:03:04.266Z,3.13
2023-02-02T22:05:36.544Z,2.65
2023-02-02T22:08:18.871Z,2.28
2023-02-02T22:10:47.407Z,2.88
2023-02-02T22:13:19.037Z,2.40
2023-02-02T22:15:48.399Z,2.05
2023-02-02T22:18:20.679Z,1.98
2023-02-02T22:20:50.799Z,1.90
2023-02-02T22:23:21.169Z,2.05
2023-02-02T22:25:50.749Z,2.30
2023-02-02T22:28:22.733Z,2.40
2023-02-02T22:30:52.690Z,2.17
2023-02-02T22:33:23.493Z,2.58
2023-02-02T22:35:51.825Z,1.73
2023-02-02T22:38:22.069Z,2.40
2023-02-02T22:40:51.636Z,2.47
2023-02-02T22:43:20.943Z,2.05
2023-02-02T22:45:49.501Z,2.22
2023-02-02T22:48:18.308Z,2.30
2023-02-02T22:50:48.172Z,2.30
2023-02-02T22:53:16.253Z,2.55
2023-02-02T22:55:44.422Z,2.30
2023-02-02T22:58:12.596Z,2.45
2023-02-02T23:00:40.634Z,2.42
2023-02-02T23:03:08.802Z,1.95
2023-02-02T23:05:36.968Z,1.77
2023-02-02T23:08:06.970Z,2.00
2023-02-02T23:10:36.005Z,1.88
2023-02-02T23:13:05.948Z,1.67
2023-02-02T23:15:34.770Z,2.10
2023-02-02T23:18:03.478Z,1.90
2023-02-02T23:20:31.785Z,1.75
2023-02-02T23:22:59.963Z,1.50
2023-02-02T23:25:29.584Z,1.85
2023-02-02T23:27:57.685Z,1.85
2023-02-02T23:30:26.094Z,1.70
2023-02-02T23:32:54.263Z,2.17
2023-02-02T23:35:22.379Z,1.80
2023-02-02T23:37:50.451Z,2.42
2023-02-02T23:40:18.773Z,1.40
2023-02-02T23:42:48.267Z,1.73
2023-02-02T23:45:16.644Z,1.95
2023-02-02T23:47:45.033Z,2.00
2023-02-02T23:50:14.120Z,1.98
2023-02-02T23:52:42.319Z,2.00
2023-02-02T23:55:11.068Z,1.65
2023-02-02T23:57:39.487Z,1.95
